Overview Statistics Trail Chart Weather Telemetry Raw packets
 

This is the latest recevied weather packets stored in our database for station/object 9W2EXL-13. If no packets are shown the sender has not sent any weather packets the latest 10 day(s).

<< 7 8 9 10 11 12 13 >>
Time Temp. Humidity Pressure Rain* Wind** Luminosity Snow
1788278794 31.67° C 98% 1013.1 hPa - - - -
1788277905 31.67° C 97% 1013.1 hPa - - - -
1788276097 31.67° C 96% 1012.9 hPa - - - -
1788275194 32.22° C 95% 1012.9 hPa - - - -
1788273394 32.22° C 96% 1012.7 hPa - - - -
1788272494 32.22° C 96% 1012.4 hPa - - - -
1788269793 32.22° C 93% 1011.7 hPa - - - -
1788267993 32.78° C 91% 1011.6 hPa - - - -
1788260792 35° C 80% 1010.4 hPa - - - -
1788259892 35.56° C 79% 1010.1 hPa - - - -
1788253592 35° C 76% 1009.5 hPa - - - -
1788250891 34.44° C 76% 1009.9 hPa - - - -
1788249991 34.44° C 75% 1010.1 hPa - - - -
1788249091 34.44° C 78% 1010.1 hPa - - - -
1788248191 35° C 77% 1010 hPa - - - -
1788247291 34.44° C 76% 1010.3 hPa - - - -
1788238290 35° C 72% 1012.2 hPa - - - -
1788235590 34.44° C 79% 1012.4 hPa - - - -
1788233790 33.89° C 84% 1012.8 hPa - - - -
1788231990 33.33° C 84% 1013.2 hPa - - - -
1788231089 32.78° C 92% 1013.2 hPa - - - -
1788228389 31.11° C 96% 1013 hPa - - - -
1788226589 31.11° C 99% 1012.8 hPa - - - -
1788225689 30.56° C 100% 1012.8 hPa - - - -
1788217588 30° C 100% 1011.3 hPa - - - -

* Rain since midnight (hover to see other rain measurements)
** Current wind speed in m/s (hover to see current wind gust speed)